Time;durP1;ratioP1;P1;durP2;ratioP2;P2;SDS_P1;SDS_P2;PMS_P1;PMS_P2;Temp;Humidity;BMP_temperature;BMP_pressure;BME280_temperature;BME280_humidity;BME280_pressure;Samples;Min_cycle;Max_cycle;Signal;HPM_P1;HPM_P2
2022/09/04 00:02:10;;;;;;;;;63.25;48.25;;;;;;;;5037753;28;45526;-76
2022/09/04 00:04:43;;;;;;;;;63.00;47.00;;;;;;;;5038197;28;45369;-75
2022/09/04 00:07:14;;;;;;;;;55.00;45.33;;;;;;;;5037936;28;45412;-75
2022/09/04 00:09:49;;;;;;;;;57.67;45.67;;;;;;;;5036872;28;46179;-75
2022/09/04 00:12:16;;;;;;;;;58.33;47.00;;;;;;;;5037899;28;45482;-75
2022/09/04 00:14:47;;;;;;;;;63.67;46.67;;;;;;;;5038097;28;45334;-76
2022/09/04 00:17:22;;;;;;;;;59.33;44.67;;;;;;;;5037696;28;45568;-76
2022/09/04 00:19:47;;;;;;;;;59.00;46.67;;;;;;;;5037642;28;46601;-76
2022/09/04 00:22:21;;;;;;;;;62.00;47.33;;;;;;;;5062907;27;45293;-76
2022/09/04 00:25:07;;;;;;;;;62.00;48.00;;;;;;;;5101132;27;45510;-77
2022/09/04 00:27:43;;;;;;;;;62.00;46.67;;;;;;;;5100471;27;45239;-77
2022/09/04 00:30:12;;;;;;;;;63.67;49.33;;;;;;;;5100492;27;47154;-77
2022/09/04 00:33:07;;;;;;;;;55.33;45.00;;;;;;;;5100645;27;45826;-77
2022/09/04 00:35:43;;;;;;;;;59.33;45.67;;;;;;;;5086898;27;45338;-76
2022/09/04 00:38:28;;;;;;;;;55.67;46.00;;;;;;;;5100887;27;45309;-77
2022/09/04 00:41:03;;;;;;;;;58.67;44.67;;;;;;;;5089138;27;46154;-76
2022/09/04 00:43:28;;;;;;;;;53.67;45.00;;;;;;;;5100341;27;45349;-77
2022/09/04 00:46:07;;;;;;;;;55.00;43.00;;;;;;;;5100381;27;45393;-77
2022/09/04 00:48:36;;;;;;;;;54.00;43.67;;;;;;;;5100898;27;45186;-77
2022/09/04 00:51:19;;;;;;;;;59.67;45.00;;;;;;;;5100131;27;45519;-78
2022/09/04 00:53:50;;;;;;;;;55.67;46.33;;;;;;;;5100271;27;45449;-78
2022/09/04 00:56:25;;;;;;;;;57.67;43.00;;;;;;;;5100457;27;46031;-78
2022/09/04 00:59:00;;;;;;;;;51.33;40.00;;;;;;;;5100951;27;45232;-78
2022/09/04 01:01:26;;;;;;;;;53.33;42.33;;;;;;;;5119832;27;45703;-79
2022/09/04 01:04:09;;;;;;;;;59.67;44.33;;;;;;;;5120183;27;45463;-78
2022/09/04 01:06:38;;;;;;;;;57.33;46.00;;;;;;;;5120923;27;45402;-78
2022/09/04 01:09:09;;;;;;;;;55.00;45.33;;;;;;;;5120854;27;45306;-78
2022/09/04 01:11:40;;;;;;;;;60.00;46.67;;;;;;;;5120785;27;46111;-78
2022/09/04 01:14:12;;;;;;;;;57.00;43.67;;;;;;;;5120567;27;45473;-78
2022/09/04 01:16:45;;;;;;;;;59.00;44.67;;;;;;;;5132760;27;45289;-79
2022/09/04 01:19:13;;;;;;;;;55.33;45.00;;;;;;;;5141559;27;45443;-77
2022/09/04 01:21:53;;;;;;;;;50.33;40.67;;;;;;;;5141101;27;45295;-78
2022/09/04 01:24:37;;;;;;;;;49.33;39.67;;;;;;;;5141297;27;45386;-78
2022/09/04 01:27:08;;;;;;;;;55.67;44.33;;;;;;;;5141367;27;45358;-77
2022/09/04 01:29:38;;;;;;;;;55.00;44.33;;;;;;;;5123024;27;45593;-77
2022/09/04 01:32:11;;;;;;;;;54.33;43.00;;;;;;;;5138134;27;45569;-76
2022/09/04 01:34:58;;;;;;;;;55.33;42.00;;;;;;;;5120334;27;45219;-77
2022/09/04 01:37:23;;;;;;;;;60.00;44.67;;;;;;;;5120276;27;45436;-78
2022/09/04 01:39:55;;;;;;;;;52.00;43.00;;;;;;;;5120419;27;45412;-79
2022/09/04 01:42:27;;;;;;;;;59.67;48.33;;;;;;;;5120282;27;46685;-78
2022/09/04 01:44:52;;;;;;;;;54.00;44.67;;;;;;;;5120073;27;45476;-78
2022/09/04 01:47:24;;;;;;;;;54.00;41.67;;;;;;;;5120221;27;45392;-78
2022/09/04 01:49:49;;;;;;;;;59.33;45.33;;;;;;;;5102840;27;45433;-79
2022/09/04 01:52:35;;;;;;;;;58.33;45.33;;;;;;;;5099408;27;45421;-77
2022/09/04 01:55:00;;;;;;;;;54.33;43.33;;;;;;;;5099414;27;45600;-78
2022/09/04 01:57:28;;;;;;;;;55.00;46.33;;;;;;;;5105641;27;45296;-76
2022/09/04 02:00:11;;;;;;;;;55.00;43.33;;;;;;;;5120172;27;45302;-78
2022/09/04 02:03:12;;;;;;;;;56.33;44.33;;;;;;;;5106325;27;46175;-78
2022/09/04 02:05:40;;;;;;;;;53.00;42.67;;;;;;;;5056204;28;45443;-77
2022/09/04 02:08:24;;;;;;;;;55.00;44.00;;;;;;;;5056228;28;45328;-78
2022/09/04 02:10:55;;;;;;;;;60.67;44.67;;;;;;;;5056195;28;45413;-77
2022/09/04 02:13:21;;;;;;;;;58.00;46.33;;;;;;;;5056639;28;47278;-77
2022/09/04 02:15:56;;;;;;;;;50.67;42.33;;;;;;;;5076504;27;45467;-79
2022/09/04 02:18:25;;;;;;;;;56.67;44.00;;;;;;;;5077083;27;45402;-77
2022/09/04 02:21:00;;;;;;;;;59.67;44.33;;;;;;;;5076448;28;45566;-76
2022/09/04 02:23:35;;;;;;;;;60.33;45.33;;;;;;;;5076191;28;47413;-76
2022/09/04 02:26:09;;;;;;;;;52.00;44.00;;;;;;;;5076023;27;45437;-76
2022/09/04 02:28:53;;;;;;;;;59.33;46.33;;;;;;;;5076250;28;45383;-76
2022/09/04 02:31:24;;;;;;;;;59.67;44.33;;;;;;;;5076230;27;45412;-76
2022/09/04 02:33:59;;;;;;;;;58.00;46.33;;;;;;;;5075740;28;47210;-76
2022/09/04 02:36:48;;;;;;;;;59.67;45.00;;;;;;;;5075971;28;45271;-76
2022/09/04 02:39:25;;;;;;;;;58.67;43.67;;;;;;;;4976114;28;45442;-75
2022/09/04 02:41:50;;;;;;;;;61.33;48.33;;;;;;;;4976514;28;45445;-76
2022/09/04 02:44:30;;;;;;;;;53.67;43.67;;;;;;;;4976206;28;46210;-76
2022/09/04 02:47:14;;;;;;;;;55.00;45.00;;;;;;;;4995033;28;45460;-76
2022/09/04 02:49:39;;;;;;;;;57.33;45.00;;;;;;;;4995628;28;45556;-76
2022/09/04 02:52:36;;;;;;;;;58.00;46.67;;;;;;;;4995999;28;45473;-76
2022/09/04 02:55:04;;;;;;;;;59.67;46.00;;;;;;;;4956450;28;46275;-76
2022/09/04 02:57:49;;;;;;;;;55.67;44.33;;;;;;;;4956376;28;45422;-76
2022/09/04 03:00:18;;;;;;;;;52.33;40.00;;;;;;;;4957535;28;45433;-76
2022/09/04 03:02:58;;;;;;;;;55.67;46.00;;;;;;;;4955927;28;45604;-76
2022/09/04 03:05:32;;;;;;;;;56.00;46.00;;;;;;;;4939510;28;45449;-76
2022/09/04 03:08:15;;;;;;;;;55.67;43.00;;;;;;;;4937040;28;45442;-76
2022/09/04 03:10:51;;;;;;;;;56.00;43.33;;;;;;;;4937283;28;45399;-76
2022/09/04 03:13:28;;;;;;;;;58.33;46.33;;;;;;;;4937413;28;45268;-76
2022/09/04 03:16:01;;;;;;;;;57.67;45.33;;;;;;;;4963818;28;45924;-76
2022/09/04 03:18:26;;;;;;;;;51.67;42.67;;;;;;;;5014805;28;45259;-75
2022/09/04 03:20:59;;;;;;;;;51.67;42.33;;;;;;;;5020829;28;45358;-76
2022/09/04 03:23:27;;;;;;;;;49.67;42.00;;;;;;;;5034646;28;45576;-76
2022/09/04 03:25:53;;;;;;;;;56.00;44.00;;;;;;;;5034937;28;46386;-75
2022/09/04 03:28:23;;;;;;;;;54.67;42.33;;;;;;;;5034878;28;45332;-76
2022/09/04 03:30:50;;;;;;;;;55.67;44.67;;;;;;;;5071549;27;45487;-76
2022/09/04 03:33:23;;;;;;;;;52.33;42.67;;;;;;;;5097962;27;45386;-76
2022/09/04 03:35:57;;;;;;;;;58.00;44.33;;;;;;;;5097687;27;47428;-76
2022/09/04 03:38:39;;;;;;;;;48.67;39.00;;;;;;;;5097432;27;45249;-76
2022/09/04 03:41:07;;;;;;;;;57.67;43.00;;;;;;;;5098137;27;45445;-75
2022/09/04 03:43:47;;;;;;;;;55.67;43.67;;;;;;;;5098019;27;45464;-75
2022/09/04 03:46:21;;;;;;;;;54.33;42.00;;;;;;;;5097412;27;46042;-76
2022/09/04 03:48:46;;;;;;;;;50.67;40.67;;;;;;;;5097676;27;45355;-75
2022/09/04 03:51:17;;;;;;;;;50.00;41.33;;;;;;;;5098012;27;45320;-75
2022/09/04 03:54:05;;;;;;;;;55.67;44.67;;;;;;;;5097420;27;45432;-75
2022/09/04 03:57:01;;;;;;;;;52.67;40.00;;;;;;;;5097015;27;45464;-76
2022/09/04 03:59:29;;;;;;;;;54.67;41.33;;;;;;;;5014386;28;45511;-76
2022/09/04 04:02:00;;;;;;;;;53.00;39.67;;;;;;;;5014698;28;45486;-76
2022/09/04 04:04:26;;;;;;;;;52.33;42.00;;;;;;;;5014724;28;45397;-75
2022/09/04 04:06:56;;;;;;;;;50.00;39.33;;;;;;;;5014219;28;47038;-75
2022/09/04 04:09:37;;;;;;;;;53.33;42.33;;;;;;;;5014382;28;45534;-75
2022/09/04 04:12:25;;;;;;;;;53.67;42.33;;;;;;;;5014236;28;45476;-75
2022/09/04 04:15:00;;;;;;;;;47.67;36.67;;;;;;;;5014858;28;45508;-76
2022/09/04 04:17:34;;;;;;;;;51.33;36.00;;;;;;;;5014571;28;45398;-75
2022/09/04 04:20:20;;;;;;;;;51.00;38.67;;;;;;;;5017720;28;45465;-75
2022/09/04 04:22:53;;;;;;;;;54.00;37.67;;;;;;;;5034426;28;45352;-75
2022/09/04 04:25:37;;;;;;;;;51.00;38.33;;;;;;;;5034382;28;45361;-75
2022/09/04 04:28:18;;;;;;;;;47.00;39.33;;;;;;;;5034126;28;46706;-75
2022/09/04 04:30:46;;;;;;;;;50.33;39.00;;;;;;;;5034226;28;45500;-75
2022/09/04 04:33:18;;;;;;;;;42.00;34.67;;;;;;;;5017341;28;45290;-75
2022/09/04 04:35:49;;;;;;;;;35.67;28.33;;;;;;;;5065258;27;45455;-75
2022/09/04 04:38:20;;;;;;;;;43.00;35.00;;;;;;;;5100607;27;47336;-75
2022/09/04 04:41:03;;;;;;;;;43.67;35.33;;;;;;;;5100714;27;45446;-75
2022/09/04 04:43:29;;;;;;;;;45.00;36.33;;;;;;;;5100804;27;45212;-75
2022/09/04 04:45:59;;;;;;;;;43.67;35.00;;;;;;;;5100762;27;45269;-76
2022/09/04 04:48:36;;;;;;;;;48.33;35.33;;;;;;;;5100430;27;45711;-75
2022/09/04 04:51:20;;;;;;;;;47.33;40.33;;;;;;;;5099881;27;45414;-75
2022/09/04 04:54:04;;;;;;;;;48.33;38.33;;;;;;;;5100588;27;45319;-74
2022/09/04 04:56:44;;;;;;;;;50.33;40.33;;;;;;;;5100558;27;45466;-76
2022/09/04 04:59:19;;;;;;;;;48.00;38.00;;;;;;;;5100171;27;45258;-76
2022/09/04 05:01:59;;;;;;;;;42.00;34.00;;;;;;;;5100263;27;45315;-76
2022/09/04 05:04:33;;;;;;;;;43.00;34.67;;;;;;;;5100189;27;45470;-76
2022/09/04 05:07:17;;;;;;;;;46.00;36.33;;;;;;;;5100557;27;45400;-76
2022/09/04 05:09:42;;;;;;;;;54.50;45.50;;;;;;;;5099336;27;45536;-75
2022/09/04 05:12:16;;;;;;;;;43.00;35.00;;;;;;;;5100129;27;45291;-75
2022/09/04 05:14:41;;;;;;;;;42.00;34.00;;;;;;;;5100211;27;45297;-76
2022/09/04 05:17:22;;;;;;;;;43.00;36.50;;;;;;;;5100429;27;45416;-75
2022/09/04 05:19:56;;;;;;;;;46.67;34.67;;;;;;;;5099747;27;47233;-76
2022/09/04 05:22:21;;;;;;;;;44.67;35.33;;;;;;;;5099823;27;45325;-75
2022/09/04 05:24:46;;;;;;;;;38.33;34.00;;;;;;;;5099368;27;45287;-75
2022/09/04 05:27:31;;;;;;;;;43.00;34.67;;;;;;;;5100337;27;45383;-75
2022/09/04 05:30:03;;;;;;;;;44.67;33.67;;;;;;;;5099925;27;46740;-76
2022/09/04 05:32:34;;;;;;;;;44.33;34.67;;;;;;;;5099740;27;45501;-76
2022/09/04 05:35:08;;;;;;;;;36.33;33.33;;;;;;;;5099888;27;45207;-75
2022/09/04 05:37:39;;;;;;;;;38.33;32.67;;;;;;;;5099929;27;45211;-75
2022/09/04 05:40:11;;;;;;;;;40.00;33.67;;;;;;;;5099606;27;45537;-75
2022/09/04 05:42:55;;;;;;;;;42.00;34.67;;;;;;;;5099351;27;45685;-75
2022/09/04 05:45:24;;;;;;;;;32.33;30.67;;;;;;;;5099696;27;45382;-75
2022/09/04 05:48:08;;;;;;;;;39.33;34.67;;;;;;;;5099483;27;45856;-75
2022/09/04 05:50:49;;;;;;;;;40.00;33.00;;;;;;;;5099085;27;45626;-75
2022/09/04 05:53:24;;;;;;;;;36.00;33.33;;;;;;;;5099354;27;45441;-75
2022/09/04 05:56:07;;;;;;;;;33.67;30.00;;;;;;;;5099488;27;45362;-76
2022/09/04 05:58:39;;;;;;;;;43.33;34.33;;;;;;;;5099532;27;45520;-75
2022/09/04 06:01:14;;;;;;;;;33.67;33.00;;;;;;;;5098783;27;48347;-76
2022/09/04 06:03:48;;;;;;;;;29.67;29.67;;;;;;;;5080703;27;45411;-76
2022/09/04 06:06:20;;;;;;;;;41.00;32.33;;;;;;;;5099358;27;45410;-75
2022/09/04 06:08:52;;;;;;;;;34.33;29.67;;;;;;;;5099489;27;45368;-76
2022/09/04 06:11:30;;;;;;;;;28.67;26.67;;;;;;;;5099121;27;46485;-75
2022/09/04 06:14:11;;;;;;;;;28.33;26.67;;;;;;;;5099066;27;45185;-75
2022/09/04 06:16:55;;;;;;;;;29.67;27.00;;;;;;;;5099197;27;45475;-75
2022/09/04 06:19:23;;;;;;;;;28.67;23.67;;;;;;;;5114083;27;45357;-75
2022/09/04 06:22:00;;;;;;;;;24.00;21.00;;;;;;;;5119260;27;46587;-75
2022/09/04 06:24:37;;;;;;;;;23.33;20.33;;;;;;;;5119625;27;45377;-75
2022/09/04 06:27:05;;;;;;;;;25.00;23.33;;;;;;;;5119737;27;45458;-76
2022/09/04 06:29:46;;;;;;;;;27.67;21.67;;;;;;;;5119655;27;45327;-75
2022/09/04 06:32:17;;;;;;;;;26.67;24.67;;;;;;;;5119506;27;45503;-75
2022/09/04 06:34:54;;;;;;;;;23.67;23.67;;;;;;;;5100838;27;45346;-75
2022/09/04 06:37:35;;;;;;;;;19.00;18.00;;;;;;;;5098895;27;45334;-75
2022/09/04 06:40:00;;;;;;;;;25.00;21.33;;;;;;;;5098930;27;45434;-76
2022/09/04 06:42:44;;;;;;;;;22.67;20.00;;;;;;;;5098834;27;46017;-75
2022/09/04 06:45:32;;;;;;;;;24.67;22.67;;;;;;;;5098775;27;45260;-76
2022/09/04 06:48:16;;;;;;;;;22.00;19.33;;;;;;;;5098931;27;45327;-73
2022/09/04 06:50:48;;;;;;;;;25.33;22.00;;;;;;;;5101328;27;45472;-73
2022/09/04 06:53:20;;;;;;;;;18.00;18.00;;;;;;;;5119094;27;46444;-73
2022/09/04 06:56:07;;;;;;;;;24.67;20.00;;;;;;;;5119017;27;45455;-73
2022/09/04 06:58:53;;;;;;;;;21.33;15.67;;;;;;;;5117946;27;45372;-74
2022/09/04 07:01:28;;;;;;;;;16.67;15.33;;;;;;;;5119242;27;45390;-73
2022/09/04 07:04:05;;;;;;;;;16.67;16.33;;;;;;;;5118812;27;46392;-73
2022/09/04 07:06:36;;;;;;;;;15.00;14.00;;;;;;;;5118537;27;45321;-72
2022/09/04 07:09:20;;;;;;;;;22.00;22.00;;;;;;;;5099984;27;45362;-74
2022/09/04 07:12:03;;;;;;;;;17.33;15.00;;;;;;;;5098660;27;45271;-74
2022/09/04 07:14:40;;;;;;;;;15.00;14.33;;;;;;;;5098178;27;45355;-73
2022/09/04 07:17:06;;;;;;;;;15.00;14.33;;;;;;;;5098189;27;45245;-73
2022/09/04 07:19:31;;;;;;;;;14.67;13.67;;;;;;;;5098309;27;45367;-73
2022/09/04 07:22:07;;;;;;;;;13.00;13.00;;;;;;;;5098203;27;45329;-73
2022/09/04 07:24:37;;;;;;;;;11.67;11.67;;;;;;;;5097459;27;46399;-75
2022/09/04 07:27:21;;;;;;;;;12.33;12.33;;;;;;;;5098110;27;45309;-72
2022/09/04 07:29:51;;;;;;;;;14.67;12.67;;;;;;;;5098003;27;45337;-73
2022/09/04 07:32:22;;;;;;;;;15.00;13.67;;;;;;;;5098164;27;45315;-71
2022/09/04 07:34:50;;;;;;;;;13.00;11.67;;;;;;;;5097699;27;45272;-79
2022/09/04 07:37:25;;;;;;;;;15.67;13.00;;;;;;;;5097747;27;45239;-74
2022/09/04 07:40:10;;;;;;;;;13.33;11.00;;;;;;;;5097985;27;45333;-75
2022/09/04 07:42:38;;;;;;;;;18.00;15.00;;;;;;;;5098071;27;45555;-78
2022/09/04 07:45:08;;;;;;;;;10.67;10.67;;;;;;;;5097677;27;45395;-73
2022/09/04 07:47:45;;;;;;;;;13.00;12.00;;;;;;;;5097705;27;45553;-73
2022/09/04 07:50:19;;;;;;;;;16.33;13.33;;;;;;;;5097806;27;45271;-72
2022/09/04 07:53:00;;;;;;;;;14.33;14.00;;;;;;;;5097838;27;45509;-74
2022/09/04 07:55:30;;;;;;;;;12.67;12.33;;;;;;;;5097661;27;45399;-74
2022/09/04 07:58:06;;;;;;;;;13.00;11.00;;;;;;;;5110497;27;45254;-78
2022/09/04 08:00:47;;;;;;;;;11.00;10.00;;;;;;;;5118265;27;45479;-76
2022/09/04 08:03:28;;;;;;;;;13.67;12.00;;;;;;;;5118505;27;45426;-77
2022/09/04 08:05:53;;;;;;;;;13.67;12.00;;;;;;;;5117879;27;45504;-73
2022/09/04 08:08:37;;;;;;;;;10.33;9.00;;;;;;;;5118047;27;45431;-76
2022/09/04 08:11:08;;;;;;;;;13.33;11.00;;;;;;;;5121911;27;45249;-74
2022/09/04 08:13:36;;;;;;;;;7.67;6.33;;;;;;;;5118404;27;45304;-73
2022/09/04 08:16:21;;;;;;;;;14.33;13.67;;;;;;;;5100849;27;45419;-76
2022/09/04 08:19:05;;;;;;;;;16.33;13.33;;;;;;;;5100801;27;45279;-77
2022/09/04 08:21:36;;;;;;;;;14.00;9.67;;;;;;;;5100823;27;45758;-78
2022/09/04 08:24:10;;;;;;;;;9.67;8.33;;;;;;;;5101114;27;45383;-76
2022/09/04 08:26:53;;;;;;;;;12.00;9.67;;;;;;;;5100676;27;46391;-77
2022/09/04 08:29:21;;;;;;;;;8.67;8.67;;;;;;;;5100855;27;45361;-76
2022/09/04 08:32:08;;;;;;;;;8.00;8.00;;;;;;;;5114775;27;45424;-78
2022/09/04 08:34:49;;;;;;;;;10.67;10.67;;;;;;;;5121478;27;45538;-81
2022/09/04 08:37:14;;;;;;;;;14.67;11.33;;;;;;;;5121087;27;47307;-79
2022/09/04 08:39:48;;;;;;;;;8.33;8.33;;;;;;;;5120265;27;45314;-79
2022/09/04 08:42:27;;;;;;;;;12.00;9.33;;;;;;;;5121091;27;45353;-78
2022/09/04 08:45:04;;;;;;;;;15.67;13.00;;;;;;;;5121262;27;45375;-76
2022/09/04 08:47:41;;;;;;;;;10.00;10.00;;;;;;;;5116592;27;45591;-76
2022/09/04 08:50:06;;;;;;;;;12.33;10.00;;;;;;;;5106695;27;45943;-79
2022/09/04 08:52:46;;;;;;;;;14.67;13.00;;;;;;;;5120554;27;45426;-77
2022/09/04 08:55:14;;;;;;;;;13.00;9.67;;;;;;;;5121089;27;45371;-79
2022/09/04 08:58:08;;;;;;;;;10.67;10.67;;;;;;;;5120830;27;46392;-78
2022/09/04 09:00:53;;;;;;;;;11.00;11.00;;;;;;;;5120834;27;45779;-76
2022/09/04 09:03:36;;;;;;;;;15.33;13.67;;;;;;;;5120716;27;45452;-77
2022/09/04 09:06:11;;;;;;;;;11.33;11.33;;;;;;;;5119530;27;45358;-76
2022/09/04 09:08:42;;;;;;;;;11.67;11.67;;;;;;;;5120232;27;46201;-76
2022/09/04 09:11:26;;;;;;;;;14.00;13.00;;;;;;;;5120293;27;45833;-77
2022/09/04 09:14:09;;;;;;;;;13.33;11.33;;;;;;;;5120750;27;45304;-77
2022/09/04 09:16:38;;;;;;;;;11.33;11.33;;;;;;;;5120838;27;45360;-78
2022/09/04 09:19:09;;;;;;;;;17.33;16.33;;;;;;;;5120425;27;47296;-76
2022/09/04 09:21:41;;;;;;;;;10.67;9.33;;;;;;;;5118353;27;46746;-81
2022/09/04 09:24:18;;;;;;;;;11.00;8.33;;;;;;;;5120657;27;45370;-80
2022/09/04 09:27:04;;;;;;;;;15.33;11.00;;;;;;;;5120939;27;45195;-80
2022/09/04 09:29:42;;;;;;;;;12.00;10.00;;;;;;;;5120520;27;45476;-82
2022/09/04 09:32:31;;;;;;;;;15.67;12.67;;;;;;;;5120401;27;45271;-82
2022/09/04 09:35:14;;;;;;;;;10.00;9.00;;;;;;;;5119945;27;45758;-81
2022/09/04 09:37:55;;;;;;;;;15.00;10.00;;;;;;;;5120791;27;45426;-78
2022/09/04 09:40:26;;;;;;;;;14.00;13.00;;;;;;;;5119835;27;45384;-78
2022/09/04 09:43:11;;;;;;;;;15.67;12.67;;;;;;;;5119952;27;45372;-76
2022/09/04 09:45:55;;;;;;;;;15.00;13.33;;;;;;;;5120376;27;45318;-78
2022/09/04 09:48:39;;;;;;;;;18.33;16.33;;;;;;;;5120216;27;45524;-79
2022/09/04 09:51:05;;;;;;;;;13.00;13.00;;;;;;;;5120060;27;46362;-77
2022/09/04 09:53:33;;;;;;;;;12.00;11.33;;;;;;;;5116558;27;45499;-76
2022/09/04 09:56:13;;;;;;;;;9.00;9.00;;;;;;;;5099423;27;45283;-79
2022/09/04 09:58:47;;;;;;;;;16.00;13.67;;;;;;;;5099485;27;45530;-78
2022/09/04 10:01:23;;;;;;;;;14.00;14.00;;;;;;;;5099109;27;46435;-79
2022/09/04 10:03:54;;;;;;;;;10.33;8.00;;;;;;;;5099126;27;45942;-80
2022/09/04 10:06:23;;;;;;;;;12.33;12.33;;;;;;;;5099269;27;45517;-79
2022/09/04 10:08:50;;;;;;;;;16.00;12.00;;;;;;;;5098440;27;45621;-76
2022/09/04 10:11:25;;;;;;;;;11.00;11.00;;;;;;;;5098501;27;46774;-79
2022/09/04 10:14:02;;;;;;;;;6.67;6.67;;;;;;;;5098933;27;45504;-79
2022/09/04 10:16:33;;;;;;;;;9.00;8.67;;;;;;;;5099062;27;45325;-78
2022/09/04 10:18:58;;;;;;;;;8.33;6.00;;;;;;;;5098828;27;45449;-78
2022/09/04 10:21:35;;;;;;;;;13.00;12.00;;;;;;;;5098752;27;46637;-76
2022/09/04 10:24:09;;;;;;;;;8.33;8.33;;;;;;;;5098903;27;45326;-77
2022/09/04 10:27:01;;;;;;;;;11.00;9.00;;;;;;;;5098797;27;45410;-73
2022/09/04 10:29:31;;;;;;;;;7.67;5.67;;;;;;;;5059693;27;45445;-78
2022/09/04 10:31:56;;;;;;;;;5.67;5.33;;;;;;;;5098636;27;46088;-77
2022/09/04 10:34:22;;;;;;;;;6.00;5.00;;;;;;;;5098797;27;45269;-77
2022/09/04 10:36:52;;;;;;;;;6.33;4.33;;;;;;;;5099112;27;45369;-79
2022/09/04 10:42:37;;;;;;;;;6.67;6.67;;;;;;;;5055637;28;46449;-75
2022/09/04 10:45:08;;;;;;;;;16.33;14.00;;;;;;;;5036788;28;45400;-74
2022/09/04 10:47:57;;;;;;;;;5.00;5.00;;;;;;;;5054480;28;45665;-74
2022/09/04 10:50:25;;;;;;;;;6.00;5.00;;;;;;;;5054969;28;45512;-76
2022/09/04 10:53:10;;;;;;;;;4.67;4.67;;;;;;;;5054082;28;46716;-75
2022/09/04 10:55:42;;;;;;;;;6.00;4.00;;;;;;;;5054395;28;45601;-75
2022/09/04 10:58:26;;;;;;;;;4.67;4.67;;;;;;;;5054716;28;45467;-71
2022/09/04 11:01:07;;;;;;;;;9.00;7.67;;;;;;;;5054542;28;45571;-72
2022/09/04 11:03:44;;;;;;;;;4.67;2.67;;;;;;;;5054316;28;47229;-73
2022/09/04 11:06:27;;;;;;;;;5.33;4.00;;;;;;;;5054504;28;45491;-75
2022/09/04 11:09:11;;;;;;;;;4.33;4.33;;;;;;;;5054254;28;45338;-72
2022/09/04 11:11:55;;;;;;;;;2.33;2.33;;;;;;;;5055578;28;45678;-75
2022/09/04 11:14:36;;;;;;;;;4.67;4.67;;;;;;;;5097910;27;45502;-75
2022/09/04 11:17:04;;;;;;;;;3.00;3.00;;;;;;;;5118204;27;45389;-76
2022/09/04 11:19:44;;;;;;;;;2.33;2.33;;;;;;;;5118419;27;45382;-75
2022/09/04 11:22:21;;;;;;;;;5.00;3.67;;;;;;;;5118241;27;45423;-76
2022/09/04 11:24:58;;;;;;;;;3.33;3.00;;;;;;;;5117735;27;45426;-76
2022/09/04 11:27:25;;;;;;;;;3.00;3.00;;;;;;;;5117936;27;45490;-77
2022/09/04 11:29:53;;;;;;;;;5.00;4.00;;;;;;;;5118080;27;45394;-77
2022/09/04 11:32:30;;;;;;;;;19.67;18.33;;;;;;;;5117600;27;45531;-77
2022/09/04 11:35:14;;;;;;;;;6.00;4.00;;;;;;;;5117618;27;46556;-78
2022/09/04 11:37:56;;;;;;;;;4.00;4.00;;;;;;;;5117588;27;45394;-79
2022/09/04 11:40:27;;;;;;;;;2.33;2.33;;;;;;;;5117904;27;45669;-77
2022/09/04 11:42:58;;;;;;;;;5.00;4.00;;;;;;;;5118040;27;45451;-75
2022/09/04 11:45:37;;;;;;;;;2.67;2.00;;;;;;;;5120209;27;45473;-77
2022/09/04 11:48:12;;;;;;;;;2.33;2.33;;;;;;;;5120472;27;45589;-77
2022/09/04 11:50:40;;;;;;;;;3.00;3.00;;;;;;;;5121486;27;45425;-75
2022/09/04 11:53:11;;;;;;;;;5.00;4.00;;;;;;;;5102205;27;45724;-78
2022/09/04 11:55:48;;;;;;;;;4.33;3.33;;;;;;;;5120484;27;45616;-71
2022/09/04 11:58:39;;;;;;;;;4.00;4.00;;;;;;;;5121087;27;45382;-71
2022/09/04 12:01:09;;;;;;;;;5.00;3.00;;;;;;;;5121106;27;45581;-70
2022/09/04 12:03:43;;;;;;;;;3.67;3.67;;;;;;;;5121339;27;45492;-70
2022/09/04 12:06:12;;;;;;;;;3.00;3.00;;;;;;;;5104523;27;46233;-70
2022/09/04 12:09:06;;;;;;;;;5.00;3.00;;;;;;;;5100083;27;45366;-70
2022/09/04 12:11:50;;;;;;;;;1.00;1.00;;;;;;;;5100425;27;45464;-70
2022/09/04 12:14:27;;;;;;;;;4.00;4.00;;;;;;;;5100282;27;45693;-73
2022/09/04 12:16:56;;;;;;;;;3.67;3.00;;;;;;;;5100047;27;46198;-72
2022/09/04 12:19:41;;;;;;;;;5.00;3.00;;;;;;;;5100878;27;45390;-72
2022/09/04 12:22:13;;;;;;;;;2.00;2.00;;;;;;;;5120785;27;45465;-71
2022/09/04 12:24:38;;;;;;;;;2.00;2.00;;;;;;;;5120958;27;45358;-71
2022/09/04 12:27:03;;;;;;;;;3.00;3.00;;;;;;;;5120284;27;46575;-71
2022/09/04 12:29:44;;;;;;;;;1.00;1.00;;;;;;;;5120814;27;45215;-73
2022/09/04 12:32:24;;;;;;;;;2.00;2.00;;;;;;;;5120831;27;45715;-73
2022/09/04 12:34:53;;;;;;;;;1.67;1.67;;;;;;;;5120736;27;45544;-69
2022/09/04 12:37:33;;;;;;;;;3.00;2.00;;;;;;;;5099888;27;47328;-71
2022/09/04 12:40:07;;;;;;;;;1.33;1.33;;;;;;;;5104485;27;45347;-71
2022/09/04 12:42:39;;;;;;;;;3.33;3.33;;;;;;;;5120599;27;45607;-70
2022/09/04 12:45:04;;;;;;;;;3.33;2.00;;;;;;;;5120550;27;45397;-71
2022/09/04 12:47:32;;;;;;;;;1.67;1.67;;;;;;;;5120300;27;47651;-72
2022/09/04 12:50:16;;;;;;;;;3.00;3.00;;;;;;;;5120519;27;45318;-72
2022/09/04 12:52:46;;;;;;;;;1.67;1.67;;;;;;;;5120463;27;45467;-70
2022/09/04 12:55:11;;;;;;;;;3.33;3.00;;;;;;;;5119477;27;45475;-72
2022/09/04 12:57:40;;;;;;;;;5.00;3.00;;;;;;;;5118617;27;46433;-71
2022/09/04 13:00:10;;;;;;;;;3.00;3.00;;;;;;;;5120217;27;45426;-71
2022/09/04 13:02:36;;;;;;;;;7.00;3.67;;;;;;;;5120216;27;45370;-71
2022/09/04 13:05:02;;;;;;;;;2.00;2.00;;;;;;;;5120339;27;45465;-71
2022/09/04 13:07:30;;;;;;;;;2.00;2.00;;;;;;;;5119917;27;46643;-72
2022/09/04 13:10:04;;;;;;;;;2.00;2.00;;;;;;;;5119928;27;45363;-72
2022/09/04 13:12:32;;;;;;;;;2.00;2.00;;;;;;;;5105920;27;45551;-71
2022/09/04 13:15:07;;;;;;;;;1.33;1.33;;;;;;;;5098857;27;45490;-71
2022/09/04 13:18:02;;;;;;;;;5.33;2.67;;;;;;;;5098999;27;46806;-71
2022/09/04 13:20:43;;;;;;;;;2.67;2.67;;;;;;;;5077296;27;45502;-71
2022/09/04 13:23:11;;;;;;;;;0.00;0.00;;;;;;;;5099222;27;45418;-71
2022/09/04 13:25:54;;;;;;;;;4.33;2.00;;;;;;;;5099337;27;45697;-70
2022/09/04 13:28:43;;;;;;;;;2.33;2.00;;;;;;;;5098495;27;46347;-70
2022/09/04 13:31:14;;;;;;;;;2.00;2.00;;;;;;;;5098226;27;45331;-70
2022/09/04 13:33:59;;;;;;;;;2.00;2.00;;;;;;;;5099179;27;45520;-70
2022/09/04 13:36:37;;;;;;;;;2.00;2.00;;;;;;;;5098956;27;45516;-70
2022/09/04 13:39:21;;;;;;;;;6.00;3.33;;;;;;;;5101958;27;47497;-71
2022/09/04 13:41:49;;;;;;;;;2.00;2.00;;;;;;;;5110334;27;45440;-70
2022/09/04 13:44:37;;;;;;;;;4.33;3.00;;;;;;;;5119162;27;45436;-71
2022/09/04 13:47:08;;;;;;;;;1.33;1.33;;;;;;;;5113106;27;45393;-71
2022/09/04 13:49:46;;;;;;;;;2.00;2.00;;;;;;;;5118909;27;46649;-70
2022/09/04 13:52:15;;;;;;;;;2.67;2.67;;;;;;;;5118773;27;45612;-71
2022/09/04 13:54:51;;;;;;;;;2.67;2.00;;;;;;;;5119142;27;45448;-70
2022/09/04 13:57:26;;;;;;;;;3.00;3.00;;;;;;;;5119098;27;45384;-70
2022/09/04 13:59:54;;;;;;;;;1.67;1.67;;;;;;;;5118416;27;46513;-70
2022/09/04 14:02:25;;;;;;;;;1.00;1.00;;;;;;;;5104882;27;45520;-70
2022/09/04 14:04:54;;;;;;;;;1.00;1.00;;;;;;;;5098253;27;45492;-69
2022/09/04 14:07:21;;;;;;;;;1.00;1.00;;;;;;;;5097627;27;45448;-70
2022/09/04 14:09:48;;;;;;;;;3.67;2.00;;;;;;;;5100196;27;46418;-70
2022/09/04 14:12:17;;;;;;;;;3.00;1.00;;;;;;;;5118640;27;45463;-69
2022/09/04 14:14:42;;;;;;;;;4.33;2.00;;;;;;;;5118747;27;45667;-70
2022/09/04 14:17:08;;;;;;;;;7.33;5.00;;;;;;;;5119103;27;45381;-68
2022/09/04 14:19:42;;;;;;;;;1.33;1.33;;;;;;;;5117430;27;46518;-70
2022/09/04 14:22:10;;;;;;;;;1.00;1.00;;;;;;;;5118492;27;45455;-70
2022/09/04 14:24:39;;;;;;;;;3.00;1.00;;;;;;;;5118728;27;45498;-70
2022/09/04 14:27:13;;;;;;;;;2.33;2.00;;;;;;;;5118511;27;45501;-69
2022/09/04 14:29:55;;;;;;;;;1.00;1.00;;;;;;;;5118391;27;46252;-70
2022/09/04 14:32:33;;;;;;;;;2.00;1.00;;;;;;;;5113508;27;45487;-71
2022/09/04 14:35:08;;;;;;;;;1.00;1.00;;;;;;;;5110878;27;45471;-70
2022/09/04 14:37:47;;;;;;;;;1.00;1.00;;;;;;;;5118028;27;45805;-70
2022/09/04 14:40:18;;;;;;;;;2.67;1.67;;;;;;;;5102370;27;45331;-70
2022/09/04 14:43:02;;;;;;;;;5.33;5.00;;;;;;;;5117898;27;45300;-69
2022/09/04 14:45:32;;;;;;;;;4.00;4.00;;;;;;;;5118281;27;45466;-70
2022/09/04 14:48:02;;;;;;;;;4.33;3.00;;;;;;;;5118008;27;45494;-69
2022/09/04 14:50:29;;;;;;;;;3.00;3.00;;;;;;;;5117767;27;46357;-70
2022/09/04 14:52:56;;;;;;;;;5.00;5.00;;;;;;;;5117608;27;45759;-71
2022/09/04 14:55:26;;;;;;;;;2.67;2.33;;;;;;;;5102874;27;45377;-69
2022/09/04 14:57:58;;;;;;;;;1.00;1.00;;;;;;;;5110674;27;45472;-70
2022/09/04 15:00:23;;;;;;;;;2.33;2.00;;;;;;;;5105792;27;46693;-69
2022/09/04 15:02:59;;;;;;;;;1.67;1.67;;;;;;;;5108905;27;45393;-68
2022/09/04 15:05:30;;;;;;;;;3.00;1.33;;;;;;;;5117716;27;45451;-68
2022/09/04 15:07:58;;;;;;;;;1.00;1.00;;;;;;;;5097459;27;45367;-68
2022/09/04 15:10:23;;;;;;;;;1.00;1.00;;;;;;;;5097199;27;46840;-69
2022/09/04 15:12:55;;;;;;;;;2.33;2.33;;;;;;;;5096873;27;45367;-70
2022/09/04 15:15:30;;;;;;;;;1.67;1.67;;;;;;;;5097480;27;45589;-69